sensor_id;sensor_type;location;lat;lon;timestamp;P1;durP1;ratioP1;P2;durP2;ratioP2
55465;SDS011;41329;41.594;23.810;2023-02-22T00:00:38;22.43;;;17.83;;
55465;SDS011;41329;41.594;23.810;2023-02-22T00:03:18;20.53;;;16.13;;
55465;SDS011;41329;41.594;23.810;2023-02-22T00:05:52;21.53;;;14.83;;
55465;SDS011;41329;41.594;23.810;2023-02-22T00:08:20;22.30;;;15.20;;
55465;SDS011;41329;41.594;23.810;2023-02-22T00:10:47;18.57;;;14.30;;
55465;SDS011;41329;41.594;23.810;2023-02-22T00:13:17;12.77;;;11.67;;
55465;SDS011;41329;41.594;23.810;2023-02-22T00:15:44;13.17;;;11.83;;
55465;SDS011;41329;41.594;23.810;2023-02-22T00:18:13;14.03;;;12.50;;
55465;SDS011;41329;41.594;23.810;2023-02-22T00:20:40;15.70;;;13.10;;
55465;SDS011;41329;41.594;23.810;2023-02-22T00:23:06;15.73;;;10.50;;
55465;SDS011;41329;41.594;23.810;2023-02-22T00:25:33;11.20;;;9.73;;
55465;SDS011;41329;41.594;23.810;2023-02-22T00:28:00;9.37;;;8.60;;
55465;SDS011;41329;41.594;23.810;2023-02-22T00:30:26;10.30;;;9.33;;
55465;SDS011;41329;41.594;23.810;2023-02-22T00:32:54;8.70;;;8.00;;
55465;SDS011;41329;41.594;23.810;2023-02-22T00:35:22;11.30;;;8.97;;
55465;SDS011;41329;41.594;23.810;2023-02-22T00:37:53;9.83;;;9.03;;
55465;SDS011;41329;41.594;23.810;2023-02-22T00:40:22;11.17;;;10.07;;
55465;SDS011;41329;41.594;23.810;2023-02-22T00:42:50;11.93;;;10.82;;
55465;SDS011;41329;41.594;23.810;2023-02-22T00:45:17;11.30;;;10.33;;
55465;SDS011;41329;41.594;23.810;2023-02-22T00:47:44;10.10;;;9.23;;
55465;SDS011;41329;41.594;23.810;2023-02-22T00:50:10;13.23;;;10.77;;
55465;SDS011;41329;41.594;23.810;2023-02-22T00:52:36;13.90;;;12.60;;
55465;SDS011;41329;41.594;23.810;2023-02-22T00:55:04;13.60;;;12.40;;
55465;SDS011;41329;41.594;23.810;2023-02-22T00:57:31;11.53;;;10.40;;
55465;SDS011;41329;41.594;23.810;2023-02-22T00:59:59;8.80;;;7.30;;
55465;SDS011;41329;41.594;23.810;2023-02-22T01:02:35;8.13;;;7.43;;
55465;SDS011;41329;41.594;23.810;2023-02-22T01:05:03;10.53;;;8.50;;
55465;SDS011;41329;41.594;23.810;2023-02-22T01:07:29;11.57;;;10.17;;
55465;SDS011;41329;41.594;23.810;2023-02-22T01:09:55;11.33;;;10.40;;
55465;SDS011;41329;41.594;23.810;2023-02-22T01:12:20;13.80;;;11.73;;
55465;SDS011;41329;41.594;23.810;2023-02-22T01:14:47;12.80;;;11.70;;
55465;SDS011;41329;41.594;23.810;2023-02-22T01:17:12;13.90;;;12.23;;
55465;SDS011;41329;41.594;23.810;2023-02-22T01:19:38;14.07;;;12.67;;
55465;SDS011;41329;41.594;23.810;2023-02-22T01:22:06;13.00;;;11.90;;
55465;SDS011;41329;41.594;23.810;2023-02-22T01:24:32;12.53;;;11.43;;
55465;SDS011;41329;41.594;23.810;2023-02-22T01:26:58;12.60;;;11.40;;
55465;SDS011;41329;41.594;23.810;2023-02-22T01:29:23;16.30;;;12.80;;
55465;SDS011;41329;41.594;23.810;2023-02-22T01:31:52;12.73;;;11.63;;
55465;SDS011;41329;41.594;23.810;2023-02-22T01:34:20;13.17;;;11.97;;
55465;SDS011;41329;41.594;23.810;2023-02-22T01:36:46;15.33;;;12.23;;
55465;SDS011;41329;41.594;23.810;2023-02-22T01:39:12;19.00;;;13.87;;
55465;SDS011;41329;41.594;23.810;2023-02-22T01:41:37;14.10;;;12.17;;
55465;SDS011;41329;41.594;23.810;2023-02-22T01:47:02;14.93;;;13.50;;
55465;SDS011;41329;41.594;23.810;2023-02-22T01:49:37;14.40;;;13.10;;
55465;SDS011;41329;41.594;23.810;2023-02-22T01:52:09;13.07;;;11.97;;
55465;SDS011;41329;41.594;23.810;2023-02-22T01:54:39;16.33;;;13.23;;
55465;SDS011;41329;41.594;23.810;2023-02-22T01:57:23;23.00;;;16.07;;
55465;SDS011;41329;41.594;23.810;2023-02-22T01:59:54;16.37;;;14.87;;
55465;SDS011;41329;41.594;23.810;2023-02-22T02:02:24;23.27;;;17.30;;
55465;SDS011;41329;41.594;23.810;2023-02-22T02:04:51;21.73;;;16.43;;
55465;SDS011;41329;41.594;23.810;2023-02-22T02:07:19;23.70;;;17.70;;
55465;SDS011;41329;41.594;23.810;2023-02-22T02:12:17;20.17;;;16.60;;
55465;SDS011;41329;41.594;23.810;2023-02-22T02:14:45;17.63;;;14.40;;
55465;SDS011;41329;41.594;23.810;2023-02-22T02:17:15;14.93;;;12.87;;
55465;SDS011;41329;41.594;23.810;2023-02-22T02:36:08;16.13;;;13.97;;
55465;SDS011;41329;41.594;23.810;2023-02-22T02:38:44;17.27;;;13.33;;
55465;SDS011;41329;41.594;23.810;2023-02-22T02:41:52;14.83;;;13.37;;
55465;SDS011;41329;41.594;23.810;2023-02-22T02:44:36;18.83;;;16.20;;
55465;SDS011;41329;41.594;23.810;2023-02-22T02:47:05;14.95;;;13.48;;
55465;SDS011;41329;41.594;23.810;2023-02-22T02:49:47;16.70;;;13.87;;
55465;SDS011;41329;41.594;23.810;2023-02-22T02:52:19;12.83;;;11.73;;
55465;SDS011;41329;41.594;23.810;2023-02-22T02:54:47;12.83;;;11.63;;
55465;SDS011;41329;41.594;23.810;2023-02-22T02:57:14;12.80;;;11.70;;
55465;SDS011;41329;41.594;23.810;2023-02-22T02:59:40;13.97;;;12.70;;
55465;SDS011;41329;41.594;23.810;2023-02-22T03:08:40;14.17;;;12.67;;
55465;SDS011;41329;41.594;23.810;2023-02-22T03:11:08;14.83;;;13.43;;
55465;SDS011;41329;41.594;23.810;2023-02-22T03:16:16;17.00;;;13.60;;
55465;SDS011;41329;41.594;23.810;2023-02-22T03:18:50;14.40;;;13.13;;
55465;SDS011;41329;41.594;23.810;2023-02-22T03:26:59;14.97;;;13.40;;
55465;SDS011;41329;41.594;23.810;2023-02-22T03:29:33;14.53;;;13.03;;
55465;SDS011;41329;41.594;23.810;2023-02-22T03:32:06;13.20;;;11.90;;
55465;SDS011;41329;41.594;23.810;2023-02-22T03:34:37;14.13;;;11.77;;
55465;SDS011;41329;41.594;23.810;2023-02-22T03:37:19;17.40;;;11.73;;
55465;SDS011;41329;41.594;23.810;2023-02-22T03:39:50;14.10;;;11.50;;
55465;SDS011;41329;41.594;23.810;2023-02-22T03:42:22;13.10;;;11.77;;
55465;SDS011;41329;41.594;23.810;2023-02-22T03:44:53;14.10;;;12.60;;
55465;SDS011;41329;41.594;23.810;2023-02-22T03:47:28;12.83;;;11.67;;
55465;SDS011;41329;41.594;23.810;2023-02-22T03:50:02;12.37;;;11.17;;
55465;SDS011;41329;41.594;23.810;2023-02-22T03:52:34;12.10;;;11.00;;
55465;SDS011;41329;41.594;23.810;2023-02-22T03:55:01;11.83;;;10.73;;
55465;SDS011;41329;41.594;23.810;2023-02-22T03:57:30;12.27;;;11.07;;
55465;SDS011;41329;41.594;23.810;2023-02-22T03:59:59;14.73;;;13.33;;
55465;SDS011;41329;41.594;23.810;2023-02-22T04:02:24;27.20;;;15.77;;
55465;SDS011;41329;41.594;23.810;2023-02-22T04:04:50;22.57;;;16.23;;
55465;SDS011;41329;41.594;23.810;2023-02-22T04:07:15;31.50;;;19.27;;
55465;SDS011;41329;41.594;23.810;2023-02-22T04:09:41;29.77;;;18.73;;
55465;SDS011;41329;41.594;23.810;2023-02-22T04:12:07;50.83;;;24.40;;
55465;SDS011;41329;41.594;23.810;2023-02-22T04:14:32;30.17;;;19.13;;
55465;SDS011;41329;41.594;23.810;2023-02-22T04:16:58;27.67;;;16.40;;
55465;SDS011;41329;41.594;23.810;2023-02-22T04:19:24;21.83;;;15.07;;
55465;SDS011;41329;41.594;23.810;2023-02-22T04:21:50;17.20;;;15.20;;
55465;SDS011;41329;41.594;23.810;2023-02-22T04:24:15;13.30;;;12.10;;
55465;SDS011;41329;41.594;23.810;2023-02-22T04:26:41;14.13;;;11.17;;
55465;SDS011;41329;41.594;23.810;2023-02-22T04:29:06;13.87;;;12.57;;
55465;SDS011;41329;41.594;23.810;2023-02-22T04:31:32;13.13;;;11.87;;
55465;SDS011;41329;41.594;23.810;2023-02-22T04:33:58;15.80;;;13.50;;
55465;SDS011;41329;41.594;23.810;2023-02-22T04:36:24;12.50;;;11.30;;
55465;SDS011;41329;41.594;23.810;2023-02-22T04:38:51;13.37;;;12.27;;
55465;SDS011;41329;41.594;23.810;2023-02-22T04:41:17;13.87;;;12.57;;
55465;SDS011;41329;41.594;23.810;2023-02-22T04:43:45;11.97;;;10.83;;
55465;SDS011;41329;41.594;23.810;2023-02-22T04:46:11;13.37;;;10.93;;
55465;SDS011;41329;41.594;23.810;2023-02-22T04:48:37;18.77;;;13.97;;
55465;SDS011;41329;41.594;23.810;2023-02-22T04:51:03;27.80;;;17.53;;
55465;SDS011;41329;41.594;23.810;2023-02-22T04:53:28;29.07;;;19.53;;
55465;SDS011;41329;41.594;23.810;2023-02-22T04:55:54;22.20;;;18.13;;
55465;SDS011;41329;41.594;23.810;2023-02-22T04:58:19;19.37;;;14.53;;
55465;SDS011;41329;41.594;23.810;2023-02-22T05:00:45;14.53;;;11.53;;
55465;SDS011;41329;41.594;23.810;2023-02-22T05:03:10;16.67;;;15.17;;
55465;SDS011;41329;41.594;23.810;2023-02-22T05:05:36;22.90;;;17.30;;
55465;SDS011;41329;41.594;23.810;2023-02-22T05:08:01;23.07;;;16.60;;
55465;SDS011;41329;41.594;23.810;2023-02-22T05:10:27;18.03;;;16.07;;
55465;SDS011;41329;41.594;23.810;2023-02-22T05:12:52;18.67;;;14.37;;
55465;SDS011;41329;41.594;23.810;2023-02-22T05:15:18;14.27;;;12.83;;
55465;SDS011;41329;41.594;23.810;2023-02-22T05:17:45;14.33;;;12.87;;
55465;SDS011;41329;41.594;23.810;2023-02-22T05:20:22;14.33;;;12.87;;
55465;SDS011;41329;41.594;23.810;2023-02-22T05:22:52;12.20;;;10.95;;
55465;SDS011;41329;41.594;23.810;2023-02-22T05:25:18;12.67;;;10.17;;
55465;SDS011;41329;41.594;23.810;2023-02-22T05:27:47;10.37;;;9.37;;
55465;SDS011;41329;41.594;23.810;2023-02-22T05:32:40;8.77;;;8.03;;
55465;SDS011;41329;41.594;23.810;2023-02-22T05:35:05;9.43;;;8.53;;
55465;SDS011;41329;41.594;23.810;2023-02-22T05:37:32;9.47;;;8.50;;
55465;SDS011;41329;41.594;23.810;2023-02-22T05:39:58;9.60;;;8.80;;
55465;SDS011;41329;41.594;23.810;2023-02-22T05:42:23;43.50;;;23.10;;
55465;SDS011;41329;41.594;23.810;2023-02-22T05:44:49;56.17;;;37.43;;
55465;SDS011;41329;41.594;23.810;2023-02-22T05:47:14;47.97;;;28.37;;
55465;SDS011;41329;41.594;23.810;2023-02-22T05:49:40;31.27;;;20.73;;
55465;SDS011;41329;41.594;23.810;2023-02-22T05:52:05;22.10;;;19.73;;
55465;SDS011;41329;41.594;23.810;2023-02-22T05:54:31;30.03;;;21.10;;
55465;SDS011;41329;41.594;23.810;2023-02-22T05:56:56;26.07;;;19.97;;
55465;SDS011;41329;41.594;23.810;2023-02-22T05:59:21;44.97;;;27.13;;
55465;SDS011;41329;41.594;23.810;2023-02-22T06:01:47;72.63;;;43.63;;
55465;SDS011;41329;41.594;23.810;2023-02-22T06:04:12;65.30;;;39.60;;
55465;SDS011;41329;41.594;23.810;2023-02-22T06:06:38;43.23;;;28.73;;
55465;SDS011;41329;41.594;23.810;2023-02-22T06:09:03;53.23;;;31.67;;
55465;SDS011;41329;41.594;23.810;2023-02-22T06:11:29;73.17;;;37.93;;
55465;SDS011;41329;41.594;23.810;2023-02-22T06:13:54;72.33;;;43.37;;
55465;SDS011;41329;41.594;23.810;2023-02-22T06:16:20;95.40;;;59.43;;
55465;SDS011;41329;41.594;23.810;2023-02-22T06:18:46;92.80;;;53.93;;
55465;SDS011;41329;41.594;23.810;2023-02-22T06:21:12;90.47;;;45.20;;
55465;SDS011;41329;41.594;23.810;2023-02-22T06:23:37;86.67;;;43.27;;
55465;SDS011;41329;41.594;23.810;2023-02-22T06:26:03;81.53;;;44.13;;
55465;SDS011;41329;41.594;23.810;2023-02-22T06:28:28;122.10;;;60.30;;
55465;SDS011;41329;41.594;23.810;2023-02-22T06:30:54;185.60;;;76.87;;
55465;SDS011;41329;41.594;23.810;2023-02-22T06:33:19;185.17;;;79.40;;
55465;SDS011;41329;41.594;23.810;2023-02-22T06:35:44;184.00;;;78.77;;
55465;SDS011;41329;41.594;23.810;2023-02-22T06:38:11;139.90;;;62.00;;
55465;SDS011;41329;41.594;23.810;2023-02-22T06:40:44;90.87;;;43.13;;
55465;SDS011;41329;41.594;23.810;2023-02-22T06:43:09;86.47;;;41.10;;
55465;SDS011;41329;41.594;23.810;2023-02-22T06:45:35;83.20;;;39.80;;
55465;SDS011;41329;41.594;23.810;2023-02-22T06:48:00;75.37;;;38.73;;
55465;SDS011;41329;41.594;23.810;2023-02-22T06:50:27;72.73;;;38.63;;
55465;SDS011;41329;41.594;23.810;2023-02-22T06:52:54;51.77;;;29.13;;
55465;SDS011;41329;41.594;23.810;2023-02-22T06:55:21;47.73;;;27.93;;
55465;SDS011;41329;41.594;23.810;2023-02-22T06:57:49;53.97;;;32.07;;
55465;SDS011;41329;41.594;23.810;2023-02-22T07:00:16;35.77;;;23.63;;
55465;SDS011;41329;41.594;23.810;2023-02-22T07:02:43;57.13;;;33.43;;
55465;SDS011;41329;41.594;23.810;2023-02-22T07:05:09;45.37;;;27.97;;
55465;SDS011;41329;41.594;23.810;2023-02-22T07:07:36;35.57;;;23.03;;
55465;SDS011;41329;41.594;23.810;2023-02-22T07:10:03;26.47;;;19.37;;
55465;SDS011;41329;41.594;23.810;2023-02-22T07:12:30;24.77;;;20.50;;
55465;SDS011;41329;41.594;23.810;2023-02-22T07:14:55;15.80;;;14.10;;
55465;SDS011;41329;41.594;23.810;2023-02-22T07:17:21;15.63;;;13.53;;
55465;SDS011;41329;41.594;23.810;2023-02-22T07:19:46;15.67;;;14.20;;
55465;SDS011;41329;41.594;23.810;2023-02-22T07:22:11;16.43;;;14.70;;
55465;SDS011;41329;41.594;23.810;2023-02-22T07:24:37;13.80;;;12.60;;
55465;SDS011;41329;41.594;23.810;2023-02-22T07:27:05;17.33;;;14.70;;
55465;SDS011;41329;41.594;23.810;2023-02-22T07:29:30;16.47;;;14.53;;
55465;SDS011;41329;41.594;23.810;2023-02-22T07:31:56;17.83;;;15.87;;
55465;SDS011;41329;41.594;23.810;2023-02-22T07:34:21;21.07;;;17.97;;
55465;SDS011;41329;41.594;23.810;2023-02-22T07:36:47;19.67;;;17.70;;
55465;SDS011;41329;41.594;23.810;2023-02-22T07:39:13;28.13;;;19.73;;
55465;SDS011;41329;41.594;23.810;2023-02-22T07:41:38;24.90;;;20.03;;
55465;SDS011;41329;41.594;23.810;2023-02-22T07:44:04;28.50;;;22.40;;
55465;SDS011;41329;41.594;23.810;2023-02-22T07:46:29;27.60;;;22.97;;
55465;SDS011;41329;41.594;23.810;2023-02-22T07:48:55;35.70;;;26.40;;
55465;SDS011;41329;41.594;23.810;2023-02-22T07:51:20;41.50;;;26.77;;
55465;SDS011;41329;41.594;23.810;2023-02-22T07:53:46;36.30;;;25.60;;
55465;SDS011;41329;41.594;23.810;2023-02-22T07:56:12;29.60;;;21.67;;
55465;SDS011;41329;41.594;23.810;2023-02-22T07:58:38;25.53;;;18.10;;
55465;SDS011;41329;41.594;23.810;2023-02-22T08:01:04;27.17;;;18.30;;
55465;SDS011;41329;41.594;23.810;2023-02-22T08:03:31;15.60;;;14.13;;
55465;SDS011;41329;41.594;23.810;2023-02-22T08:06:00;12.15;;;11.20;;
55465;SDS011;41329;41.594;23.810;2023-02-22T08:08:27;16.23;;;14.57;;
55465;SDS011;41329;41.594;23.810;2023-02-22T08:10:53;16.27;;;14.43;;
55465;SDS011;41329;41.594;23.810;2023-02-22T08:13:19;18.87;;;17.23;;
55465;SDS011;41329;41.594;23.810;2023-02-22T08:15:46;13.10;;;12.00;;
55465;SDS011;41329;41.594;23.810;2023-02-22T08:18:13;22.40;;;16.67;;
55465;SDS011;41329;41.594;23.810;2023-02-22T08:20:40;17.90;;;15.97;;
55465;SDS011;41329;41.594;23.810;2023-02-22T08:23:07;14.53;;;13.20;;
55465;SDS011;41329;41.594;23.810;2023-02-22T08:25:33;19.63;;;17.93;;
55465;SDS011;41329;41.594;23.810;2023-02-22T08:28:00;32.87;;;21.17;;
55465;SDS011;41329;41.594;23.810;2023-02-22T08:30:29;31.17;;;21.87;;
55465;SDS011;41329;41.594;23.810;2023-02-22T08:32:55;23.60;;;19.13;;
55465;SDS011;41329;41.594;23.810;2023-02-22T08:35:22;19.77;;;17.70;;
55465;SDS011;41329;41.594;23.810;2023-02-22T08:37:49;18.50;;;16.70;;
55465;SDS011;41329;41.594;23.810;2023-02-22T08:40:18;21.27;;;16.10;;
55465;SDS011;41329;41.594;23.810;2023-02-22T08:42:50;20.70;;;16.50;;
55465;SDS011;41329;41.594;23.810;2023-02-22T08:45:16;30.00;;;21.27;;
55465;SDS011;41329;41.594;23.810;2023-02-22T08:47:41;38.87;;;24.33;;
55465;SDS011;41329;41.594;23.810;2023-02-22T08:50:08;216.60;;;101.37;;
55465;SDS011;41329;41.594;23.810;2023-02-22T08:52:43;155.27;;;65.47;;
55465;SDS011;41329;41.594;23.810;2023-02-22T08:55:08;35.70;;;23.73;;
55465;SDS011;41329;41.594;23.810;2023-02-22T08:57:34;47.90;;;28.30;;
55465;SDS011;41329;41.594;23.810;2023-02-22T08:59:59;20.30;;;18.33;;
55465;SDS011;41329;41.594;23.810;2023-02-22T09:02:25;43.87;;;27.70;;
55465;SDS011;41329;41.594;23.810;2023-02-22T09:04:50;15.03;;;13.73;;
55465;SDS011;41329;41.594;23.810;2023-02-22T09:07:15;11.93;;;11.00;;
55465;SDS011;41329;41.594;23.810;2023-02-22T09:09:42;11.50;;;10.67;;
55465;SDS011;41329;41.594;23.810;2023-02-22T09:12:08;11.70;;;10.87;;
55465;SDS011;41329;41.594;23.810;2023-02-22T09:14:34;13.53;;;12.43;;
55465;SDS011;41329;41.594;23.810;2023-02-22T09:16:59;12.50;;;11.60;;
55465;SDS011;41329;41.594;23.810;2023-02-22T09:19:25;13.70;;;12.50;;
55465;SDS011;41329;41.594;23.810;2023-02-22T09:21:54;12.03;;;11.10;;
55465;SDS011;41329;41.594;23.810;2023-02-22T09:24:21;15.10;;;13.52;;
55465;SDS011;41329;41.594;23.810;2023-02-22T09:26:47;12.00;;;11.10;;
55465;SDS011;41329;41.594;23.810;2023-02-22T09:29:18;16.27;;;14.97;;
55465;SDS011;41329;41.594;23.810;2023-02-22T09:31:47;15.73;;;12.60;;
55465;SDS011;41329;41.594;23.810;2023-02-22T09:34:14;14.03;;;11.10;;
55465;SDS011;41329;41.594;23.810;2023-02-22T09:36:43;13.33;;;12.10;;
55465;SDS011;41329;41.594;23.810;2023-02-22T09:39:13;13.47;;;12.20;;
55465;SDS011;41329;41.594;23.810;2023-02-22T09:44:41;14.23;;;13.20;;
55465;SDS011;41329;41.594;23.810;2023-02-22T09:47:37;12.57;;;11.68;;
55465;SDS011;41329;41.594;23.810;2023-02-22T09:50:15;15.18;;;12.82;;
55465;SDS011;41329;41.594;23.810;2023-02-22T09:55:37;10.85;;;9.85;;
55465;SDS011;41329;41.594;23.810;2023-02-22T09:58:11;11.02;;;9.95;;
55465;SDS011;41329;41.594;23.810;2023-02-22T10:00:44;9.68;;;8.98;;
55465;SDS011;41329;41.594;23.810;2023-02-22T10:06:11;10.27;;;9.38;;
55465;SDS011;41329;41.594;23.810;2023-02-22T10:08:36;8.57;;;7.88;;
55465;SDS011;41329;41.594;23.810;2023-02-22T10:16:42;8.55;;;7.95;;
55465;SDS011;41329;41.594;23.810;2023-02-22T10:19:24;8.40;;;7.60;;
55465;SDS011;41329;41.594;23.810;2023-02-22T10:22:03;7.35;;;6.65;;
55465;SDS011;41329;41.594;23.810;2023-02-22T10:24:43;8.23;;;7.32;;
55465;SDS011;41329;41.594;23.810;2023-02-22T10:27:19;5.72;;;5.13;;
55465;SDS011;41329;41.594;23.810;2023-02-22T10:29:57;5.18;;;4.78;;
55465;SDS011;41329;41.594;23.810;2023-02-22T10:32:39;11.35;;;10.45;;
55465;SDS011;41329;41.594;23.810;2023-02-22T10:35:17;23.05;;;20.73;;
55465;SDS011;41329;41.594;23.810;2023-02-22T10:37:47;23.33;;;18.58;;
55465;SDS011;41329;41.594;23.810;2023-02-22T10:42:47;6.13;;;5.55;;
55465;SDS011;41329;41.594;23.810;2023-02-22T10:45:27;3.80;;;3.53;;
55465;SDS011;41329;41.594;23.810;2023-02-22T10:47:56;4.53;;;4.20;;
55465;SDS011;41329;41.594;23.810;2023-02-22T10:50:28;4.95;;;4.55;;
55465;SDS011;41329;41.594;23.810;2023-02-22T10:52:55;6.32;;;5.72;;
55465;SDS011;41329;41.594;23.810;2023-02-22T10:55:21;4.85;;;4.45;;
55465;SDS011;41329;41.594;23.810;2023-02-22T10:57:48;4.20;;;3.80;;
55465;SDS011;41329;41.594;23.810;2023-02-22T11:00:27;4.37;;;4.07;;
55465;SDS011;41329;41.594;23.810;2023-02-22T11:02:56;3.17;;;2.97;;
55465;SDS011;41329;41.594;23.810;2023-02-22T11:05:28;3.22;;;2.92;;
55465;SDS011;41329;41.594;23.810;2023-02-22T11:08:12;3.33;;;3.03;;
55465;SDS011;41329;41.594;23.810;2023-02-22T11:10:58;5.22;;;4.13;;
55465;SDS011;41329;41.594;23.810;2023-02-22T11:19:11;3.40;;;3.20;;
55465;SDS011;41329;41.594;23.810;2023-02-22T11:21:44;2.05;;;1.50;;
55465;SDS011;41329;41.594;23.810;2023-02-22T11:24:12;3.72;;;2.08;;
55465;SDS011;41329;41.594;23.810;2023-02-22T11:26:47;2.42;;;1.67;;
55465;SDS011;41329;41.594;23.810;2023-02-22T11:29:31;3.58;;;2.38;;
55465;SDS011;41329;41.594;23.810;2023-02-22T11:32:01;2.42;;;2.20;;
55465;SDS011;41329;41.594;23.810;2023-02-22T11:34:38;3.15;;;2.47;;
55465;SDS011;41329;41.594;23.810;2023-02-22T11:37:26;2.60;;;2.40;;
55465;SDS011;41329;41.594;23.810;2023-02-22T11:42:36;2.53;;;2.33;;
55465;SDS011;41329;41.594;23.810;2023-02-22T11:45:16;1.52;;;1.42;;
55465;SDS011;41329;41.594;23.810;2023-02-22T11:53:28;9.90;;;9.07;;
55465;SDS011;41329;41.594;23.810;2023-02-22T11:55:52;1.73;;;1.63;;
55465;SDS011;41329;41.594;23.810;2023-02-22T12:06:45;1.35;;;1.25;;
55465;SDS011;41329;41.594;23.810;2023-02-22T12:09:50;1.92;;;1.20;;
55465;SDS011;41329;41.594;23.810;2023-02-22T12:12:19;1.67;;;1.48;;
55465;SDS011;41329;41.594;23.810;2023-02-22T12:20:46;2.38;;;1.33;;
55465;SDS011;41329;41.594;23.810;2023-02-22T12:23:19;2.38;;;2.17;;
55465;SDS011;41329;41.594;23.810;2023-02-22T12:28:56;4.90;;;4.45;;
55465;SDS011;41329;41.594;23.810;2023-02-22T12:34:10;1.30;;;1.20;;
55465;SDS011;41329;41.594;23.810;2023-02-22T12:36:59;2.17;;;1.98;;
55465;SDS011;41329;41.594;23.810;2023-02-22T12:39:48;2.10;;;1.90;;
55465;SDS011;41329;41.594;23.810;2023-02-22T12:42:17;1.48;;;1.30;;
55465;SDS011;41329;41.594;23.810;2023-02-22T12:45:05;3.13;;;1.60;;
55465;SDS011;41329;41.594;23.810;2023-02-22T12:47:43;1.48;;;1.35;;
55465;SDS011;41329;41.594;23.810;2023-02-22T12:50:19;1.70;;;1.60;;
55465;SDS011;41329;41.594;23.810;2023-02-22T12:55:50;4.95;;;4.55;;
55465;SDS011;41329;41.594;23.810;2023-02-22T12:58:31;2.97;;;1.40;;
55465;SDS011;41329;41.594;23.810;2023-02-22T13:01:10;4.45;;;2.00;;
55465;SDS011;41329;41.594;23.810;2023-02-22T13:03:42;2.63;;;2.00;;
55465;SDS011;41329;41.594;23.810;2023-02-22T13:06:13;2.00;;;1.88;;
55465;SDS011;41329;41.594;23.810;2023-02-22T13:19:25;2.30;;;1.58;;
55465;SDS011;41329;41.594;23.810;2023-02-22T13:30:05;1.92;;;1.40;;
55465;SDS011;41329;41.594;23.810;2023-02-22T13:41:39;1.50;;;1.27;;
55465;SDS011;41329;41.594;23.810;2023-02-22T13:52:24;1.70;;;1.25;;
55465;SDS011;41329;41.594;23.810;2023-02-22T13:54:58;1.15;;;1.10;;
55465;SDS011;41329;41.594;23.810;2023-02-22T14:08:07;3.17;;;1.50;;
55465;SDS011;41329;41.594;23.810;2023-02-22T14:11:02;1.67;;;1.38;;
55465;SDS011;41329;41.594;23.810;2023-02-22T14:16:28;1.85;;;1.30;;
55465;SDS011;41329;41.594;23.810;2023-02-22T14:19:02;1.63;;;1.52;;
55465;SDS011;41329;41.594;23.810;2023-02-22T14:21:45;3.67;;;1.58;;
55465;SDS011;41329;41.594;23.810;2023-02-22T14:24:19;3.00;;;2.35;;
55465;SDS011;41329;41.594;23.810;2023-02-22T14:26:54;4.30;;;1.77;;
55465;SDS011;41329;41.594;23.810;2023-02-22T14:29:23;2.30;;;1.95;;
55465;SDS011;41329;41.594;23.810;2023-02-22T14:34:15;1.60;;;1.50;;
55465;SDS011;41329;41.594;23.810;2023-02-22T14:37:06;11.32;;;10.27;;
55465;SDS011;41329;41.594;23.810;2023-02-22T14:42:32;2.15;;;1.95;;
55465;SDS011;41329;41.594;23.810;2023-02-22T14:45:02;2.92;;;2.03;;
55465;SDS011;41329;41.594;23.810;2023-02-22T14:47:47;2.42;;;1.40;;
55465;SDS011;41329;41.594;23.810;2023-02-22T14:55:40;2.70;;;1.90;;
55465;SDS011;41329;41.594;23.810;2023-02-22T14:58:19;2.25;;;1.90;;
55465;SDS011;41329;41.594;23.810;2023-02-22T15:00:48;2.58;;;2.38;;
55465;SDS011;41329;41.594;23.810;2023-02-22T15:03:32;2.70;;;2.30;;
55465;SDS011;41329;41.594;23.810;2023-02-22T15:06:18;6.65;;;4.07;;
55465;SDS011;41329;41.594;23.810;2023-02-22T15:08:46;4.25;;;3.85;;
55465;SDS011;41329;41.594;23.810;2023-02-22T15:11:28;6.28;;;5.78;;
55465;SDS011;41329;41.594;23.810;2023-02-22T15:13:58;3.95;;;3.65;;
55465;SDS011;41329;41.594;23.810;2023-02-22T15:16:25;4.47;;;3.35;;
55465;SDS011;41329;41.594;23.810;2023-02-22T15:21:24;3.80;;;3.50;;
55465;SDS011;41329;41.594;23.810;2023-02-22T15:26:58;11.60;;;10.95;;
55465;SDS011;41329;41.594;23.810;2023-02-22T15:29:19;5.05;;;3.83;;
55465;SDS011;41329;41.594;23.810;2023-02-22T15:31:49;3.65;;;2.97;;
55465;SDS011;41329;41.594;23.810;2023-02-22T15:36:46;3.77;;;3.47;;
55465;SDS011;41329;41.594;23.810;2023-02-22T15:42:03;5.10;;;4.70;;
55465;SDS011;41329;41.594;23.810;2023-02-22T15:44:41;7.85;;;5.88;;
55465;SDS011;41329;41.594;23.810;2023-02-22T15:47:26;8.20;;;7.57;;
55465;SDS011;41329;41.594;23.810;2023-02-22T15:50:12;9.60;;;6.60;;
55465;SDS011;41329;41.594;23.810;2023-02-22T15:52:39;10.05;;;8.10;;
55465;SDS011;41329;41.594;23.810;2023-02-22T15:55:23;6.00;;;5.53;;
55465;SDS011;41329;41.594;23.810;2023-02-22T15:57:53;7.50;;;6.80;;
55465;SDS011;41329;41.594;23.810;2023-02-22T16:00:24;6.93;;;6.43;;
55465;SDS011;41329;41.594;23.810;2023-02-22T16:03:00;4.20;;;3.80;;
55465;SDS011;41329;41.594;23.810;2023-02-22T16:05:34;2.85;;;2.60;;
55465;SDS011;41329;41.594;23.810;2023-02-22T16:08:05;3.08;;;2.63;;
55465;SDS011;41329;41.594;23.810;2023-02-22T16:11:00;3.88;;;3.60;;
55465;SDS011;41329;41.594;23.810;2023-02-22T16:13:31;3.13;;;1.77;;
55465;SDS011;41329;41.594;23.810;2023-02-22T16:18:47;2.58;;;2.08;;
55465;SDS011;41329;41.594;23.810;2023-02-22T16:21:17;2.00;;;1.80;;
55465;SDS011;41329;41.594;23.810;2023-02-22T16:23:52;2.25;;;2.00;;
55465;SDS011;41329;41.594;23.810;2023-02-22T16:31:29;3.60;;;2.15;;
55465;SDS011;41329;41.594;23.810;2023-02-22T16:33:57;2.20;;;1.80;;
55465;SDS011;41329;41.594;23.810;2023-02-22T16:36:35;2.10;;;2.00;;
55465;SDS011;41329;41.594;23.810;2023-02-22T16:39:06;2.72;;;2.53;;
55465;SDS011;41329;41.594;23.810;2023-02-22T16:41:35;2.60;;;2.40;;
55465;SDS011;41329;41.594;23.810;2023-02-22T16:44:00;2.78;;;2.00;;
55465;SDS011;41329;41.594;23.810;2023-02-22T16:46:26;2.55;;;2.35;;
55465;SDS011;41329;41.594;23.810;2023-02-22T16:48:53;2.80;;;2.60;;
55465;SDS011;41329;41.594;23.810;2023-02-22T16:51:25;3.17;;;2.95;;
55465;SDS011;41329;41.594;23.810;2023-02-22T16:53:53;11.20;;;3.60;;
55465;SDS011;41329;41.594;23.810;2023-02-22T16:56:21;2.70;;;2.30;;
55465;SDS011;41329;41.594;23.810;2023-02-22T16:58:52;3.95;;;3.53;;
55465;SDS011;41329;41.594;23.810;2023-02-22T17:01:18;7.35;;;6.82;;
55465;SDS011;41329;41.594;23.810;2023-02-22T17:03:44;4.35;;;3.97;;
55465;SDS011;41329;41.594;23.810;2023-02-22T17:06:10;4.72;;;4.40;;
55465;SDS011;41329;41.594;23.810;2023-02-22T17:08:37;7.35;;;6.95;;
55465;SDS011;41329;41.594;23.810;2023-02-22T17:11:03;5.50;;;5.00;;
55465;SDS011;41329;41.594;23.810;2023-02-22T17:13:29;4.28;;;3.97;;
55465;SDS011;41329;41.594;23.810;2023-02-22T17:15:55;7.20;;;6.70;;
55465;SDS011;41329;41.594;23.810;2023-02-22T17:18:22;3.80;;;3.60;;
55465;SDS011;41329;41.594;23.810;2023-02-22T17:20:52;2.67;;;2.30;;
55465;SDS011;41329;41.594;23.810;2023-02-22T17:23:19;2.85;;;2.65;;
55465;SDS011;41329;41.594;23.810;2023-02-22T17:25:52;3.45;;;3.03;;